Terminal Aerodrome Forecast
Issued by NWS

Home | Current Version | Previous Version | Text Only | Print | Product List | Glossary On
Versions: 1 2 3 4 5 6 7 8 9 10 11 12 13 14 15 16 17 18 19 20 21 22
504
FTUS46 KPDT 130609 AAA
TAFDLS
TAF AMD
KDLS 130609Z 1306/1406 33010KT P6SM FEW060 SCT110
     FM130800 30007KT P6SM BKN025 BKN080
     FM131200 29005KT P6SM FEW025 SCT050
     FM131900 31004KT P6SM BKN100 OVC120
     FM132200 31005KT P6SM -SHRA BKN035 OVC050=

USA.gov is the U.S. government's official web portal to all federal, state and local government web resources and services.